Time;durP1;ratioP1;P1;durP2;ratioP2;P2;SDS_P1;SDS_P2;PMS_P1;PMS_P2;Temp;Humidity;BMP_temperature;BMP_pressure;BME280_temperature;BME280_humidity;BME280_pressure;Samples;Min_cycle;Max_cycle;Signal;HPM_P1;HPM_P2
2023/06/01 00:02:24;;;;;;;5.32;3.85;;;;;;;13.44;74.72;94940.72;5029071;28;20034;-76
2023/06/01 00:04:50;;;;;;;6.75;4.05;;;;;;;13.41;75.06;94944.44;5029336;28;20037;-76
2023/06/01 00:07:15;;;;;;;5.95;3.80;;;;;;;13.39;75.27;94945.53;5013387;28;20415;-76
2023/06/01 00:09:41;;;;;;;5.05;3.63;;;;;;;13.27;75.51;94934.44;5042317;28;20037;-76
2023/06/01 00:12:07;;;;;;;4.65;3.50;;;;;;;13.21;76.06;94942.00;5053000;28;20021;-76
2023/06/01 00:14:33;;;;;;;6.15;4.13;;;;;;;13.10;76.29;94938.56;5039228;28;20096;-76
2023/06/01 00:16:58;;;;;;;6.38;4.05;;;;;;;13.15;75.98;94933.75;5033125;28;20469;-76
2023/06/01 00:19:25;;;;;;;7.38;4.07;;;;;;;13.21;75.83;94936.78;5017433;28;20045;-75
2023/06/01 00:21:53;;;;;;;6.30;3.88;;;;;;;13.44;74.84;94942.50;5000792;28;20034;-76
2023/06/01 00:24:19;;;;;;;5.53;4.10;;;;;;;13.23;75.25;94940.03;5034275;28;20044;-76
2023/06/01 00:26:45;;;;;;;7.78;4.78;;;;;;;13.00;76.12;94936.91;5021538;28;20044;-76
2023/06/01 00:29:10;;;;;;;6.95;5.10;;;;;;;13.16;76.36;94950.22;5050649;28;20037;-76
2023/06/01 00:31:36;;;;;;;7.55;5.25;;;;;;;13.19;75.43;94916.03;5020029;28;20033;-76
2023/06/01 00:34:01;;;;;;;8.07;5.32;;;;;;;13.16;76.09;94939.78;5036320;28;20033;-76
2023/06/01 00:36:26;;;;;;;7.45;5.43;;;;;;;13.25;75.92;94941.56;5036189;28;20037;-76
2023/06/01 00:38:52;;;;;;;6.70;4.93;;;;;;;13.21;75.48;94944.59;5019065;28;20044;-76
2023/06/01 00:41:17;;;;;;;6.85;4.70;;;;;;;13.16;75.60;94951.03;5050238;28;20028;-76
2023/06/01 00:43:43;;;;;;;7.72;5.20;;;;;;;12.86;76.65;94936.38;5043664;28;20033;-76
2023/06/01 00:46:09;;;;;;;6.80;5.47;;;;;;;12.91;77.09;94939.41;5035826;28;20039;-76
2023/06/01 00:48:35;;;;;;;6.88;5.38;;;;;;;12.91;76.67;94955.03;5019489;28;20059;-76
2023/06/01 00:51:00;;;;;;;11.93;5.88;;;;;;;12.86;76.78;94951.19;5016440;28;20480;-76
2023/06/01 00:53:26;;;;;;;12.90;5.53;;;;;;;12.81;76.50;94949.00;5039842;28;20090;-76
2023/06/01 00:55:51;;;;;;;6.88;5.43;;;;;;;12.81;76.54;94948.19;5052175;28;20033;-76
2023/06/01 00:58:17;;;;;;;11.30;5.95;;;;;;;12.64;77.33;94947.06;5025068;28;20040;-76
2023/06/01 01:00:42;;;;;;;8.05;5.22;;;;;;;12.79;77.28;94944.88;5032499;28;20471;-76
2023/06/01 01:03:09;;;;;;;6.70;5.30;;;;;;;12.73;77.45;94936.66;5019573;28;20062;-76
2023/06/01 01:05:37;;;;;;;6.63;4.03;;;;;;;12.67;77.66;94936.38;5035592;28;20039;-76
2023/06/01 01:08:27;;;;;;;5.22;4.07;;;;;;;12.86;76.67;94936.38;5032548;28;20037;-76
2023/06/01 01:11:01;;;;;;;4.90;3.90;;;;;;;12.80;76.45;94931.72;5000104;28;20075;-76
2023/06/01 01:13:27;;;;;;;5.80;4.20;;;;;;;12.62;76.42;94920.31;5015954;28;20029;-75
2023/06/01 01:15:59;;;;;;;7.75;5.10;;;;;;;12.78;76.61;94938.03;5015745;28;20022;-76
2023/06/01 01:18:35;;;;;;;8.00;5.60;;;;;;;12.44;77.62;94923.59;5032093;28;20045;-76
2023/06/01 01:21:01;;;;;;;6.53;4.97;;;;;;;12.45;78.38;94935.69;5015785;28;20406;-76
2023/06/01 01:23:38;;;;;;;8.00;4.63;;;;;;;12.43;78.28;94939.38;5020130;28;20033;-75
2023/06/01 01:26:19;;;;;;;8.70;5.35;;;;;;;12.65;78.23;94951.34;5032059;28;20120;-76
2023/06/01 01:28:48;;;;;;;;;;;;;;;12.48;78.58;94952.81;5044110;28;20037;-76
2023/06/01 01:31:15;;;;;;;6.65;4.50;;;;;;;12.58;78.09;94950.22;5051870;28;19916;-76
2023/06/01 01:33:41;;;;;;;7.05;4.82;;;;;;;12.53;77.91;94951.44;5033192;28;20447;-76
2023/06/01 01:36:07;;;;;;;4.70;4.15;;;;;;;12.49;78.05;94954.47;5017979;28;20026;-76
2023/06/01 01:38:36;;;;;;;4.75;4.03;;;;;;;12.46;77.98;94954.75;5026754;28;20621;-77
2023/06/01 01:41:02;;;;;;;5.07;4.18;;;;;;;12.36;78.17;94956.50;5031431;28;20033;-76
2023/06/01 01:43:27;;;;;;;4.57;3.65;;;;;;;12.39;77.74;94953.63;5032393;28;20549;-77
2023/06/01 01:45:57;;;;;;;5.28;4.05;;;;;;;12.44;77.30;94952.25;4998602;28;20040;-76
2023/06/01 01:48:25;;;;;;;5.28;4.30;;;;;;;12.41;77.35;94952.53;5015405;28;20022;-76
2023/06/01 01:50:53;;;;;;;6.15;4.28;;;;;;;12.42;77.20;94954.16;5018308;28;20446;-76
2023/06/01 01:53:19;;;;;;;5.10;4.07;;;;;;;12.49;76.90;94952.69;5034914;28;20056;-76
2023/06/01 01:55:46;;;;;;;4.85;3.90;;;;;;;12.39;77.02;94944.03;5051364;28;20033;-76
2023/06/01 01:58:11;;;;;;;4.82;3.80;;;;;;;12.40;77.24;94960.50;5032750;28;20035;-77
2023/06/01 02:00:37;;;;;;;5.18;3.72;;;;;;;12.30;77.24;94953.47;5042589;28;20029;-76
2023/06/01 02:03:02;;;;;;;4.60;3.53;;;;;;;12.27;77.31;94947.72;5014967;28;20044;-76
2023/06/01 02:05:28;;;;;;;6.10;4.00;;;;;;;12.20;77.46;94951.81;5014779;28;20029;-76
2023/06/01 02:07:53;;;;;;;4.50;3.60;;;;;;;12.15;77.64;94939.19;5014395;28;20040;-76
2023/06/01 02:10:19;;;;;;;5.28;3.92;;;;;;;12.22;77.67;94952.50;5038768;28;20518;-76
2023/06/01 02:12:44;;;;;;;5.30;4.00;;;;;;;12.24;77.64;94967.03;5050966;28;20025;-77
2023/06/01 02:15:10;;;;;;;5.45;3.85;;;;;;;12.15;77.91;94964.41;5051998;28;20025;-76
2023/06/01 02:17:37;;;;;;;4.60;4.05;;;;;;;12.20;77.60;94954.41;5029831;28;20452;-76
2023/06/01 02:20:03;;;;;;;5.15;3.88;;;;;;;12.20;77.62;94970.03;5030978;28;20033;-76
2023/06/01 02:22:28;;;;;;;5.25;3.78;;;;;;;12.07;77.68;94950.28;5030982;28;20423;-76
2023/06/01 02:24:55;;;;;;;7.15;4.00;;;;;;;12.04;78.42;94960.97;5030917;28;20038;-76
2023/06/01 02:27:20;;;;;;;5.25;3.97;;;;;;;12.09;78.16;94963.19;5041794;28;20099;-77
2023/06/01 02:29:45;;;;;;;4.82;4.03;;;;;;;12.02;78.43;94962.84;5030666;28;20504;-76
2023/06/01 02:32:11;;;;;;;4.70;3.92;;;;;;;12.05;78.09;94965.19;5030823;28;20025;-76
2023/06/01 02:34:37;;;;;;;6.45;3.60;;;;;;;11.89;78.68;94951.84;5031330;28;20037;-75
2023/06/01 02:37:02;;;;;;;5.07;3.60;;;;;;;11.87;79.00;94958.97;5014388;28;20037;-76
2023/06/01 02:39:27;;;;;;;4.88;4.10;;;;;;;12.03;78.87;94954.09;5014112;28;20065;-77
2023/06/01 02:41:53;;;;;;;4.68;3.78;;;;;;;12.00;78.75;94954.34;5016344;28;20022;-76
2023/06/01 02:44:18;;;;;;;6.13;3.83;;;;;;;11.93;78.58;94953.25;5050289;28;20036;-76
2023/06/01 02:46:44;;;;;;;4.93;3.78;;;;;;;12.01;78.50;94960.41;5033999;28;20036;-76
2023/06/01 02:49:09;;;;;;;4.20;3.42;;;;;;;11.87;78.79;94950.31;5051543;28;20037;-75
2023/06/01 02:51:35;;;;;;;5.15;4.15;;;;;;;12.07;78.55;94960.69;5050405;28;20380;-76
2023/06/01 02:54:00;;;;;;;5.53;3.88;;;;;;;12.07;78.37;94971.09;5050007;28;20065;-76
2023/06/01 02:56:26;;;;;;;5.63;3.97;;;;;;;12.01;78.73;94971.63;5050101;28;20033;-76
2023/06/01 02:58:51;;;;;;;5.65;3.70;;;;;;;12.06;78.66;94964.25;5049120;28;20025;-76
2023/06/01 03:01:17;;;;;;;5.05;4.03;;;;;;;12.06;78.77;94966.88;5033891;28;20411;-76
2023/06/01 03:03:44;;;;;;;5.38;4.00;;;;;;;12.03;78.64;94964.50;5050992;28;20043;-76
2023/06/01 03:06:09;;;;;;;5.70;3.50;;;;;;;12.05;78.63;94957.38;5050190;28;20037;-76
2023/06/01 03:08:35;;;;;;;4.70;4.03;;;;;;;12.00;78.80;94948.31;5017020;28;20112;-76
2023/06/01 03:11:00;;;;;;;7.47;4.10;;;;;;;11.87;79.25;94969.41;5051240;28;20044;-75
2023/06/01 03:13:26;;;;;;;4.68;3.80;;;;;;;11.97;79.12;94969.41;5039318;28;20101;-76
2023/06/01 03:15:51;;;;;;;5.07;4.00;;;;;;;12.01;79.13;94971.63;5022966;28;20055;-76
2023/06/01 03:18:17;;;;;;;5.07;4.05;;;;;;;11.90;79.56;94965.72;5016958;28;20039;-76
2023/06/01 03:20:42;;;;;;;5.47;3.97;;;;;;;12.05;79.55;94978.22;5050644;28;20045;-77
2023/06/01 03:23:08;;;;;;;5.20;3.72;;;;;;;11.94;79.65;94967.91;5033045;28;20029;-76
2023/06/01 03:25:33;;;;;;;5.47;4.00;;;;;;;11.99;79.55;94973.53;5016969;28;20037;-76
2023/06/01 03:27:59;;;;;;;5.40;4.13;;;;;;;12.01;79.67;94978.63;5033275;28;20029;-76
2023/06/01 03:30:25;;;;;;;4.95;4.20;;;;;;;12.08;79.57;94972.75;5014238;28;20043;-76
2023/06/01 03:32:51;;;;;;;5.60;3.92;;;;;;;12.06;79.86;94969.47;5032095;28;20238;-76
2023/06/01 03:35:16;;;;;;;4.80;3.97;;;;;;;12.14;79.47;94960.97;5049960;28;20411;-76
2023/06/01 03:37:42;;;;;;;5.30;4.00;;;;;;;12.17;79.33;94960.69;5016424;28;20041;-77
2023/06/01 03:40:11;;;;;;;4.75;3.72;;;;;;;12.16;79.34;94969.47;5033272;28;20079;-76
2023/06/01 03:43:03;;;;;;;4.45;3.90;;;;;;;12.23;79.10;94964.56;4998009;28;20037;-76
2023/06/01 03:45:28;;;;;;;4.43;3.95;;;;;;;12.15;79.20;94957.44;5031422;28;20124;-77
2023/06/01 03:47:54;;;;;;;5.00;4.20;;;;;;;12.25;79.24;94970.47;5035046;28;20025;-76
2023/06/01 03:50:19;;;;;;;6.75;4.10;;;;;;;12.23;79.06;94980.19;5017316;28;20052;-76
2023/06/01 03:52:45;;;;;;;4.90;4.20;;;;;;;12.14;79.67;94974.00;5034936;28;20038;-76
2023/06/01 03:55:13;;;;;;;5.78;4.13;;;;;;;12.21;79.41;94969.09;5050561;28;20025;-76
2023/06/01 03:57:38;;;;;;;5.80;4.50;;;;;;;12.23;79.56;94964.56;5033064;28;20507;-78
2023/06/01 04:00:17;;;;;;;5.45;4.55;;;;;;;12.32;79.35;94955.97;5017458;28;20034;-78
2023/06/01 04:02:49;;;;;;;8.50;5.15;;;;;;;12.27;79.68;94978.97;5011880;28;20037;-76
2023/06/01 04:05:16;;;;;;;8.77;5.88;;;;;;;12.32;79.48;94978.59;5017851;28;20638;-76
2023/06/01 04:07:46;;;;;;;9.10;5.90;;;;;;;12.36;79.22;94978.16;5019685;28;20128;-76
2023/06/01 04:10:13;;;;;;;9.75;6.00;;;;;;;12.30;79.50;94987.34;5036684;28;20048;-76
2023/06/01 04:12:40;;;;;;;7.60;5.25;;;;;;;12.59;79.40;94989.19;5036960;28;20033;-77
2023/06/01 04:15:06;;;;;;;8.63;6.47;;;;;;;12.77;78.28;94991.13;5036454;28;20029;-76
2023/06/01 04:17:31;;;;;;;8.50;6.80;;;;;;;12.81;78.17;94980.28;5016802;28;20038;-76
2023/06/01 04:19:57;;;;;;;7.65;6.60;;;;;;;12.92;77.49;94982.75;5034248;28;20412;-76
2023/06/01 04:22:22;;;;;;;8.52;6.97;;;;;;;12.69;78.24;94974.38;5051247;28;20446;-76
2023/06/01 04:24:48;;;;;;;9.77;7.05;;;;;;;13.06;77.39;94983.31;5036413;28;20021;-75
2023/06/01 04:27:15;;;;;;;9.20;6.68;;;;;;;13.23;77.10;94980.00;5027448;28;20032;-77
2023/06/01 04:29:43;;;;;;;7.55;6.60;;;;;;;13.58;75.20;94989.03;5052923;28;20025;-77
2023/06/01 04:32:09;;;;;;;8.73;6.90;;;;;;;13.64;75.37;94988.47;5031252;28;20528;-77
2023/06/01 04:34:35;;;;;;;9.90;7.45;;;;;;;13.56;75.60;94983.13;5052957;28;20058;-76
2023/06/01 04:37:02;;;;;;;11.60;7.57;;;;;;;13.59;75.67;94985.44;5037760;28;20040;-77
2023/06/01 04:39:28;;;;;;;10.48;7.75;;;;;;;13.56;75.79;94981.34;5052542;28;20407;-77
2023/06/01 04:41:55;;;;;;;9.60;7.88;;;;;;;13.67;76.50;94996.00;5028243;28;20029;-77
2023/06/01 04:44:21;;;;;;;7.85;6.18;;;;;;;13.82;75.79;94992.00;5033001;28;20104;-77
2023/06/01 04:46:47;;;;;;;10.32;7.97;;;;;;;13.92;75.54;94993.75;5052833;28;20502;-76
2023/06/01 04:49:15;;;;;;;9.10;8.07;;;;;;;14.18;74.56;94986.06;5035673;28;20028;-77
2023/06/01 04:51:41;;;;;;;12.57;7.60;;;;;;;14.41;73.69;94996.97;5054027;28;20037;-77
2023/06/01 04:54:07;;;;;;;12.25;8.30;;;;;;;14.49;73.38;94995.28;5041551;28;20059;-75
2023/06/01 04:56:32;;;;;;;10.65;8.27;;;;;;;14.34;73.71;94983.66;5039471;28;20041;-77
2023/06/01 04:58:58;;;;;;;12.73;8.35;;;;;;;14.64;73.07;95003.47;5041747;28;20033;-77
2023/06/01 05:01:29;;;;;;;10.80;8.68;;;;;;;14.49;73.98;94995.28;5036427;28;20048;-76
2023/06/01 05:03:55;;;;;;;10.18;8.55;;;;;;;14.45;73.77;94993.91;5042996;28;20036;-77
2023/06/01 05:06:21;;;;;;;11.02;8.05;;;;;;;14.56;74.02;95011.22;5024210;28;20037;-76
2023/06/01 05:08:47;;;;;;;12.02;8.57;;;;;;;14.65;73.59;94999.88;5032967;28;20507;-76
2023/06/01 05:11:13;;;;;;;14.15;9.07;;;;;;;14.77;73.56;95002.28;5031840;28;20081;-76
2023/06/01 05:13:38;;;;;;;12.35;8.90;;;;;;;14.75;73.86;95000.63;5052903;28;20443;-76
2023/06/01 05:16:04;;;;;;;15.98;9.48;;;;;;;14.82;73.88;94995.66;5052210;28;20033;-76
2023/06/01 05:18:31;;;;;;;17.85;9.55;;;;;;;14.87;74.08;95003.84;5033123;28;20036;-76
2023/06/01 05:20:56;;;;;;;14.80;9.50;;;;;;;14.89;74.01;94995.88;5034610;28;20036;-76
2023/06/01 05:23:22;;;;;;;12.45;9.48;;;;;;;15.05;73.13;95008.28;5045770;28;20052;-77
2023/06/01 05:25:48;;;;;;;12.07;9.02;;;;;;;15.07;72.25;95003.72;5029893;28;20029;-77
2023/06/01 05:28:14;;;;;;;12.55;9.10;;;;;;;15.11;72.14;95005.88;5030661;28;20040;-79
2023/06/01 05:30:40;;;;;;;10.00;8.55;;;;;;;15.42;71.30;94987.16;5014809;28;20049;-77
2023/06/01 05:33:06;;;;;;;12.07;8.88;;;;;;;15.33;71.34;94998.56;5032297;28;20071;-77
2023/06/01 05:35:31;;;;;;;11.57;8.75;;;;;;;15.36;71.65;95003.47;5034987;28;20041;-74
2023/06/01 05:37:57;;;;;;;12.82;9.10;;;;;;;15.56;70.33;94988.41;5050889;28;20044;-79
2023/06/01 05:40:22;;;;;;;13.45;9.57;;;;;;;15.56;70.95;95004.13;5040369;28;20037;-77
2023/06/01 05:42:47;;;;;;;10.85;8.20;;;;;;;15.48;71.14;94990.97;5032960;28;20407;-76
2023/06/01 05:45:13;;;;;;;10.38;9.02;;;;;;;15.59;70.83;94975.81;5037271;28;20029;-77
2023/06/01 05:47:38;;;;;;;12.00;8.55;;;;;;;15.92;70.57;94988.34;5040870;28;20060;-77
2023/06/01 05:50:04;;;;;;;12.73;8.88;;;;;;;16.11;69.28;94982.03;5032499;28;20025;-76
2023/06/01 05:52:30;;;;;;;11.50;8.85;;;;;;;16.30;68.70;95000.16;5035247;28;20022;-77
2023/06/01 05:54:56;;;;;;;11.38;9.07;;;;;;;16.45;68.50;95003.81;4998459;28;20025;-77
2023/06/01 05:57:21;;;;;;;12.55;8.98;;;;;;;16.27;68.55;94997.84;5031303;28;20577;-77
2023/06/01 05:59:47;;;;;;;12.00;9.15;;;;;;;16.80;66.96;94998.50;5014637;28;20466;-77
2023/06/01 06:02:16;;;;;;;11.52;7.85;;;;;;;17.05;66.22;94992.34;5030936;28;20033;-77
2023/06/01 06:04:41;;;;;;;11.77;8.57;;;;;;;16.93;66.57;94976.06;5042886;28;20029;-77
2023/06/01 06:07:07;;;;;;;8.73;6.70;;;;;;;17.20;66.47;94987.28;5052397;28;20041;-77
2023/06/01 06:09:33;;;;;;;9.32;6.95;;;;;;;17.36;66.22;94976.78;5051167;28;20055;-76
2023/06/01 06:11:59;;;;;;;11.15;6.05;;;;;;;17.61;65.15;94993.34;5051113;28;20472;-77
2023/06/01 06:14:25;;;;;;;7.05;5.47;;;;;;;17.70;65.10;94977.56;5033944;28;20036;-76
2023/06/01 06:16:50;;;;;;;6.07;4.95;;;;;;;17.71;64.29;94995.78;5050502;28;20116;-77
2023/06/01 06:19:16;;;;;;;7.75;4.90;;;;;;;17.55;64.36;94990.53;5052099;28;20036;-77
2023/06/01 06:21:41;;;;;;;5.35;4.40;;;;;;;17.97;62.93;94989.50;5031492;28;20037;-77
2023/06/01 06:24:07;;;;;;;5.60;4.53;;;;;;;18.34;62.57;94983.66;5030831;28;20040;-77
2023/06/01 06:26:32;;;;;;;8.25;5.45;;;;;;;18.24;63.19;94989.09;5030621;28;20040;-77
2023/06/01 06:28:57;;;;;;;9.38;5.30;;;;;;;18.29;63.47;94989.41;5031996;28;20061;-77
2023/06/01 06:31:23;;;;;;;13.32;7.55;;;;;;;18.28;63.20;94989.59;5030667;28;20038;-76
2023/06/01 06:33:48;;;;;;;9.90;8.43;;;;;;;18.16;63.63;94990.94;5031870;28;20450;-77
2023/06/01 06:36:14;;;;;;;13.82;8.73;;;;;;;18.13;63.77;94989.47;5031784;28;20123;-77
2023/06/01 06:38:39;;;;;;;11.98;8.30;;;;;;;18.18;63.64;94981.91;5030487;28;20052;-77
2023/06/01 06:41:05;;;;;;;12.63;8.80;;;;;;;18.24;63.27;94993.53;5031956;28;20063;-77
2023/06/01 06:43:30;;;;;;;9.80;8.52;;;;;;;18.08;63.75;94997.06;5035603;28;20044;-77
2023/06/01 06:45:56;;;;;;;15.50;9.50;;;;;;;18.17;64.59;94982.91;5038993;28;20469;-78
2023/06/01 06:48:21;;;;;;;12.05;8.88;;;;;;;18.23;64.65;94984.84;5031624;28;20024;-77
2023/06/01 06:50:47;;;;;;;10.35;8.25;;;;;;;18.33;63.99;94981.19;5040099;28;20033;-78
2023/06/01 06:53:12;;;;;;;10.15;8.07;;;;;;;18.57;63.16;94988.16;5045652;28;20053;-78
2023/06/01 06:55:38;;;;;;;11.82;7.78;;;;;;;18.62;63.36;94986.66;5031541;28;20043;-78
2023/06/01 06:58:03;;;;;;;13.02;7.93;;;;;;;18.55;63.07;94964.66;5022914;28;20029;-78
2023/06/01 07:00:28;;;;;;;11.77;8.60;;;;;;;18.59;63.57;94989.63;5049459;28;20032;-78
2023/06/01 07:02:55;;;;;;;13.25;9.20;;;;;;;18.42;63.62;94982.81;5045545;28;20102;-78
2023/06/01 07:05:20;;;;;;;10.93;8.68;;;;;;;18.60;63.36;94993.88;4999202;28;20529;-77
2023/06/01 07:07:46;;;;;;;13.55;9.05;;;;;;;18.62;63.83;94991.91;5031355;28;20025;-78
2023/06/01 07:10:12;;;;;;;12.98;8.48;;;;;;;18.53;63.34;94974.53;5049795;28;20075;-78
2023/06/01 07:12:37;;;;;;;11.55;7.75;;;;;;;18.63;62.89;94977.75;5036916;28;20488;-78
2023/06/01 07:15:03;;;;;;;13.00;8.45;;;;;;;18.76;63.14;94979.88;5012654;28;20121;-78
2023/06/01 07:17:28;;;;;;;11.55;8.35;;;;;;;18.83;63.61;94982.63;5028795;28;20029;-78
2023/06/01 07:19:54;;;;;;;10.82;8.30;;;;;;;19.20;60.61;94980.06;5014775;28;20029;-78
2023/06/01 07:22:21;;;;;;;9.52;7.40;;;;;;;19.32;60.68;94977.84;5017726;28;20040;-78
2023/06/01 07:24:47;;;;;;;12.63;7.65;;;;;;;19.45;60.97;94982.53;5035216;28;20030;-77
2023/06/01 07:27:13;;;;;;;11.88;8.15;;;;;;;19.38;60.71;94986.84;5017756;28;20411;-78
2023/06/01 07:29:38;;;;;;;9.82;7.50;;;;;;;19.41;61.27;94973.31;5017258;28;20025;-77
2023/06/01 07:32:05;;;;;;;11.43;7.60;;;;;;;19.47;61.62;94964.69;5035640;28;20033;-77
2023/06/01 07:34:33;;;;;;;12.48;7.78;;;;;;;19.31;61.43;94978.03;5017559;28;20098;-78
2023/06/01 07:36:58;;;;;;;10.07;7.72;;;;;;;19.12;62.69;94974.88;5033826;28;20091;-78
2023/06/01 07:39:24;;;;;;;9.07;7.20;;;;;;;19.16;62.58;94965.59;5034836;28;20025;-79
2023/06/01 07:41:53;;;;;;;9.60;8.27;;;;;;;19.59;61.79;94963.28;5017505;28;20041;-78
2023/06/01 07:44:19;;;;;;;12.63;7.20;;;;;;;19.37;62.19;94964.97;5035093;28;20091;-77
2023/06/01 07:46:45;;;;;;;10.23;7.70;;;;;;;19.81;60.70;94966.09;5033854;28;20037;-78
2023/06/01 07:49:13;;;;;;;11.75;7.65;;;;;;;19.69;61.18;94965.69;5034551;28;20037;-78
2023/06/01 07:51:40;;;;;;;9.13;7.40;;;;;;;19.96;59.98;94959.00;5033772;28;20034;-78
2023/06/01 07:54:05;;;;;;;9.90;7.18;;;;;;;19.97;59.81;94957.97;5034789;28;20407;-78
2023/06/01 07:56:31;;;;;;;9.10;7.60;;;;;;;19.86;59.85;94922.38;5016972;28;20042;-78
2023/06/01 07:58:56;;;;;;;9.10;7.13;;;;;;;19.93;60.40;94958.56;5033227;28;20040;-78
2023/06/01 08:01:21;;;;;;;9.40;7.75;;;;;;;20.06;59.95;94951.66;5033304;28;20033;-78
2023/06/01 08:03:47;;;;;;;10.07;7.40;;;;;;;20.22;60.08;94955.06;5033330;28;20096;-78
2023/06/01 08:06:14;;;;;;;11.93;7.75;;;;;;;20.24;59.59;94947.81;5034827;28;20499;-78
2023/06/01 08:08:40;;;;;;;11.70;7.82;;;;;;;20.21;60.06;94948.19;5034236;28;20033;-78
2023/06/01 08:11:06;;;;;;;10.88;6.38;;;;;;;20.63;57.90;94944.88;5033188;28;20057;-78
2023/06/01 08:13:32;;;;;;;9.02;6.25;;;;;;;20.90;57.26;94948.63;5000149;28;20480;-78
2023/06/01 08:15:59;;;;;;;9.38;6.45;;;;;;;20.56;56.93;94916.75;5033097;28;20091;-77
2023/06/01 08:18:24;;;;;;;11.30;5.85;;;;;;;20.88;57.10;94940.06;5034110;28;20458;-78
2023/06/01 08:20:50;;;;;;;8.25;6.47;;;;;;;21.11;56.20;94937.22;5034375;28;20040;-78
2023/06/01 08:23:22;;;;;;;10.18;7.22;;;;;;;20.78;57.04;94928.97;5016463;28;20022;-78
2023/06/01 08:25:47;;;;;;;8.48;6.05;;;;;;;21.04;57.88;94935.56;5002005;28;20400;-78
2023/06/01 08:28:13;;;;;;;9.27;7.10;;;;;;;21.17;57.08;94925.09;5032852;28;20087;-78
2023/06/01 08:30:38;;;;;;;10.20;7.38;;;;;;;21.21;57.22;94931.66;5033570;28;20056;-78
2023/06/01 08:33:04;;;;;;;9.90;6.93;;;;;;;21.10;57.22;94919.75;5015793;28;20028;-78
2023/06/01 08:35:33;;;;;;;10.18;7.68;;;;;;;21.08;57.19;94920.94;5032857;28;20037;-78
2023/06/01 08:38:01;;;;;;;9.98;6.97;;;;;;;21.20;57.20;94922.06;5033932;28;20544;-78
2023/06/01 08:40:27;;;;;;;8.88;6.90;;;;;;;21.19;56.86;94912.53;5015985;28;20453;-78
2023/06/01 08:43:18;;;;;;;14.07;8.32;;;;;;;21.21;56.95;94910.50;5032556;28;20028;-78
2023/06/01 08:45:43;;;;;;;;;;;;;;;21.45;56.85;94917.22;5033202;28;20083;-77
2023/06/01 08:48:09;;;;;;;11.70;7.80;;;;;;;21.39;56.80;94915.34;5033744;28;20020;-78
2023/06/01 08:50:35;;;;;;;15.77;10.10;;;;;;;21.38;57.24;94905.81;5032482;28;20034;-78
2023/06/01 08:53:01;;;;;;;16.65;11.40;;;;;;;21.57;56.82;94904.31;5032320;28;20036;-78
2023/06/01 08:55:26;;;;;;;15.43;11.10;;;;;;;21.42;56.73;94902.59;4999668;28;20030;-78
2023/06/01 08:57:53;;;;;;;11.50;9.55;;;;;;;21.83;56.23;94898.38;5015900;28;20036;-78
2023/06/01 09:00:19;;;;;;;13.55;9.77;;;;;;;21.90;55.76;94906.34;5032153;28;20100;-78
2023/06/01 09:02:45;;;;;;;12.98;9.18;;;;;;;21.84;55.89;94894.72;4999356;28;20418;-78
2023/06/01 09:05:12;;;;;;;12.85;9.38;;;;;;;21.88;54.83;94895.16;5032282;28;20032;-78
2023/06/01 09:07:38;;;;;;;11.30;9.23;;;;;;;21.97;54.74;94905.38;5032159;28;20033;-78
2023/06/01 09:10:04;;;;;;;14.27;8.95;;;;;;;21.90;54.89;94898.41;5015335;28;20037;-78
2023/06/01 09:12:30;;;;;;;15.95;11.63;;;;;;;21.84;54.25;94890.28;5033167;28;20121;-78
2023/06/01 09:15:16;;;;;;;16.48;12.68;;;;;;;21.76;54.38;94887.78;5015543;28;20112;-77
2023/06/01 09:17:42;;;;;;;11.85;8.43;;;;;;;22.33;53.88;94890.31;5032221;28;20033;-77
2023/06/01 09:20:14;;;;;;;19.63;12.48;;;;;;;22.57;53.56;94889.78;5031906;28;20497;-78
2023/06/01 09:22:45;;;;;;;15.77;10.20;;;;;;;22.48;53.69;94885.69;4999326;28;20053;-77
2023/06/01 09:25:12;;;;;;;13.90;10.20;;;;;;;22.38;53.13;94887.91;4998947;28;20411;-78
2023/06/01 09:27:50;;;;;;;15.10;11.57;;;;;;;22.26;53.20;94883.19;5015423;28;20053;-78
2023/06/01 09:30:17;;;;;;;13.02;9.32;;;;;;;22.34;53.66;94884.00;5015275;28;20044;-77
2023/06/01 09:32:44;;;;;;;13.95;9.13;;;;;;;22.45;53.56;94875.50;5031586;28;20037;-77
2023/06/01 09:35:10;;;;;;;11.38;8.25;;;;;;;22.58;52.75;94875.53;5015387;28;20037;-77
2023/06/01 09:37:36;;;;;;;17.42;10.40;;;;;;;22.69;52.65;94877.59;5032585;28;20059;-77
2023/06/01 09:40:04;;;;;;;12.27;9.73;;;;;;;22.59;52.37;94871.06;5015161;28;20029;-78
2023/06/01 09:42:33;;;;;;;15.77;10.38;;;;;;;22.79;51.34;94873.75;5031447;28;20033;-77
2023/06/01 09:45:21;;;;;;;13.65;9.95;;;;;;;22.90;51.77;94867.84;5015029;28;20482;-77
2023/06/01 09:47:48;;;;;;;10.63;8.90;;;;;;;22.87;52.14;94855.00;5031385;28;20037;-77
2023/06/01 09:50:33;;;;;;;13.23;8.23;;;;;;;22.61;51.05;94861.91;5031032;28;20408;-77
2023/06/01 09:52:59;;;;;;;12.82;8.40;;;;;;;22.63;50.99;94846.63;5014663;28;20491;-77
2023/06/01 09:55:24;;;;;;;10.77;8.52;;;;;;;22.69;50.96;94850.31;5031326;28;20030;-77
2023/06/01 09:57:50;;;;;;;13.15;9.27;;;;;;;22.32;51.65;94831.31;5032444;28;20029;-77
2023/06/01 10:00:24;;;;;;;12.57;9.23;;;;;;;22.55;52.25;94841.53;5030986;28;20025;-77
2023/06/01 10:02:53;;;;;;;16.70;9.23;;;;;;;22.73;52.45;94835.66;5031075;28;20041;-77
2023/06/01 10:05:18;;;;;;;11.90;8.00;;;;;;;22.74;50.66;94832.81;4998102;28;20500;-78
2023/06/01 10:07:44;;;;;;;9.48;7.38;;;;;;;22.52;51.86;94826.88;5031021;28;20033;-77
2023/06/01 10:10:09;;;;;;;12.05;7.53;;;;;;;22.42;50.33;94829.06;5030656;28;20062;-77
2023/06/01 10:12:35;;;;;;;11.82;7.70;;;;;;;22.53;50.64;94827.66;5014322;28;20099;-77
2023/06/01 10:15:01;;;;;;;11.75;7.78;;;;;;;22.23;51.56;94830.66;4997853;28;20045;-76
2023/06/01 10:17:26;;;;;;;13.02;7.57;;;;;;;21.84;52.50;94825.97;5031043;28;20034;-77
2023/06/01 10:19:51;;;;;;;12.82;7.38;;;;;;;22.04;52.75;94823.44;5014340;28;20494;-78
2023/06/01 10:22:17;;;;;;;11.80;8.63;;;;;;;22.32;51.19;94828.66;5031007;28;20053;-77
2023/06/01 10:24:42;;;;;;;11.40;8.93;;;;;;;22.16;50.94;94831.63;5031832;28;20030;-77
2023/06/01 10:27:27;;;;;;;13.23;8.23;;;;;;;22.28;51.35;94827.41;5030775;28;20069;-77
2023/06/01 10:29:55;;;;;;;13.23;8.43;;;;;;;22.10;51.55;94820.00;5030653;28;20091;-77
2023/06/01 10:32:36;;;;;;;8.68;7.13;;;;;;;22.18;50.69;94822.50;5014089;28;20498;-78
2023/06/01 10:35:02;;;;;;;;;;;;;;;22.27;49.65;94825.78;5030818;28;20614;-77
2023/06/01 10:37:27;;;;;;;10.27;6.57;;;;;;;22.35;50.88;94827.44;5030464;28;19917;-78
2023/06/01 10:39:53;;;;;;;9.68;5.30;;;;;;;22.40;50.39;94815.25;5032490;28;20042;-77
2023/06/01 10:42:18;;;;;;;12.40;5.00;;;;;;;22.68;47.58;94823.03;5014674;28;20091;-77
2023/06/01 10:44:46;;;;;;;6.43;4.20;;;;;;;22.54;45.58;94816.09;5031953;28;20025;-78
2023/06/01 10:47:12;;;;;;;7.07;4.53;;;;;;;22.64;45.49;94815.69;5031794;28;20064;-77
2023/06/01 10:49:49;;;;;;;19.08;4.13;;;;;;;22.61;44.43;94816.09;5031745;28;20064;-79
2023/06/01 10:52:25;;;;;;;6.50;4.25;;;;;;;22.65;46.02;94815.50;5031898;28;20456;-78
2023/06/01 10:54:50;;;;;;;7.20;4.25;;;;;;;22.53;45.57;94806.50;5029475;28;20036;-77
2023/06/01 10:57:25;;;;;;;4.32;3.38;;;;;;;22.28;44.05;94800.94;4997511;28;20034;-79
2023/06/01 11:00:10;;;;;;;5.40;3.50;;;;;;;22.11;42.44;94804.94;5030410;28;20104;-78
2023/06/01 11:02:48;;;;;;;5.15;3.70;;;;;;;21.90;43.83;94809.34;5031549;28;20045;-80
2023/06/01 11:05:36;;;;;;;4.18;3.33;;;;;;;21.97;43.10;94815.47;5030322;28;20041;-80
2023/06/01 11:08:03;;;;;;;4.95;3.33;;;;;;;21.88;45.70;94816.66;5030023;28;20415;-80
2023/06/01 11:10:53;;;;;;;4.18;3.47;;;;;;;21.68;43.95;94821.84;5014092;28;20053;-79
2023/06/01 11:13:33;;;;;;;5.45;3.35;;;;;;;21.26;43.70;94826.22;5031072;28;20034;-81
2023/06/01 11:16:09;;;;;;;9.93;4.20;;;;;;;20.96;48.12;94844.88;5030170;28;20033;-80
2023/06/01 11:18:41;;;;;;;8.00;3.83;;;;;;;20.27;48.15;94841.94;5031644;28;20017;-79
2023/06/01 11:21:12;;;;;;;8.48;3.40;;;;;;;19.97;48.65;94828.81;5030240;28;20555;-78
2023/06/01 11:23:38;;;;;;;5.07;3.20;;;;;;;19.89;46.93;94815.72;5030123;28;20029;-76
2023/06/01 11:26:06;;;;;;;6.53;3.42;;;;;;;19.73;47.66;94843.13;5029847;28;20488;-77
2023/06/01 11:28:31;;;;;;;4.43;3.35;;;;;;;19.43;50.47;94837.00;5030019;28;20017;-76
2023/06/01 11:30:58;;;;;;;7.50;3.20;;;;;;;19.30;50.89;94853.41;5031108;28;20056;-77